sensor_id;sensor_type;location;lat;lon;timestamp;pressure;altitude;pressure_sealevel;temperature;humidity
30216;BME280;17028;47.642;8.070;2022-09-03T00:04:46;93449.63;;;15.96;79.20
30216;BME280;17028;47.642;8.070;2022-09-03T00:09:56;93459.59;;;15.97;79.30
30216;BME280;17028;47.642;8.070;2022-09-03T00:15:03;93450.16;;;16.00;79.29
30216;BME280;17028;47.642;8.070;2022-09-03T00:20:09;93437.38;;;15.99;79.44
30216;BME280;17028;47.642;8.070;2022-09-03T00:25:15;93439.72;;;16.07;79.40
30216;BME280;17028;47.642;8.070;2022-09-03T00:30:17;93437.59;;;15.96;80.26
30216;BME280;17028;47.642;8.070;2022-09-03T00:35:32;93427.66;;;16.00;80.29
30216;BME280;17028;47.642;8.070;2022-09-03T00:41:03;93435.84;;;15.98;80.79
30216;BME280;17028;47.642;8.070;2022-09-03T00:46:25;93421.28;;;16.00;80.83
30216;BME280;17028;47.642;8.070;2022-09-03T01:02:46;93424.22;;;16.23;80.09
30216;BME280;17028;47.642;8.070;2022-09-03T01:07:56;93417.59;;;16.26;79.95
30216;BME280;17028;47.642;8.070;2022-09-03T01:13:26;93429.66;;;16.32;79.38
30216;BME280;17028;47.642;8.070;2022-09-03T01:19:00;93428.41;;;16.39;79.08
30216;BME280;17028;47.642;8.070;2022-09-03T01:29:38;93438.63;;;16.36;79.10
30216;BME280;17028;47.642;8.070;2022-09-03T01:34:47;93437.13;;;16.41;78.80
30216;BME280;17028;47.642;8.070;2022-09-03T01:45:09;93435.09;;;16.41;78.32
30216;BME280;17028;47.642;8.070;2022-09-03T01:55:55;93431.75;;;16.43;77.99
30216;BME280;17028;47.642;8.070;2022-09-03T02:01:03;93439.13;;;16.34;78.23
30216;BME280;17028;47.642;8.070;2022-09-03T02:06:08;93422.72;;;16.27;78.26
30216;BME280;17028;47.642;8.070;2022-09-03T02:11:10;93432.97;;;16.30;78.39
30216;BME280;17028;47.642;8.070;2022-09-03T02:16:17;93430.19;;;16.36;78.12
30216;BME280;17028;47.642;8.070;2022-09-03T02:21:21;93437.34;;;16.31;78.06
30216;BME280;17028;47.642;8.070;2022-09-03T02:26:23;93449.53;;;16.23;78.43
30216;BME280;17028;47.642;8.070;2022-09-03T02:31:24;93447.94;;;16.10;78.98
30216;BME280;17028;47.642;8.070;2022-09-03T02:36:31;93467.34;;;16.08;79.26
30216;BME280;17028;47.642;8.070;2022-09-03T02:41:34;93474.50;;;16.09;79.28
30216;BME280;17028;47.642;8.070;2022-09-03T02:46:39;93475.59;;;16.17;79.47
30216;BME280;17028;47.642;8.070;2022-09-03T02:51:42;93486.41;;;16.25;79.46
30216;BME280;17028;47.642;8.070;2022-09-03T02:56:43;93481.56;;;16.31;79.11
30216;BME280;17028;47.642;8.070;2022-09-03T03:01:48;93477.00;;;16.39;79.00
30216;BME280;17028;47.642;8.070;2022-09-03T03:06:49;93469.16;;;16.49;78.79
30216;BME280;17028;47.642;8.070;2022-09-03T03:11:50;93466.66;;;16.57;78.75
30216;BME280;17028;47.642;8.070;2022-09-03T03:16:51;93461.56;;;16.66;78.32
30216;BME280;17028;47.642;8.070;2022-09-03T03:21:52;93479.69;;;16.60;78.59
30216;BME280;17028;47.642;8.070;2022-09-03T03:26:55;93495.44;;;16.40;79.11
30216;BME280;17028;47.642;8.070;2022-09-03T03:31:57;93484.41;;;16.36;79.13
30216;BME280;17028;47.642;8.070;2022-09-03T03:36:59;93491.88;;;16.45;79.17
30216;BME280;17028;47.642;8.070;2022-09-03T03:42:00;93499.09;;;16.52;78.74
30216;BME280;17028;47.642;8.070;2022-09-03T03:47:01;93494.03;;;16.62;78.49
30216;BME280;17028;47.642;8.070;2022-09-03T03:52:02;93486.59;;;16.59;78.21
30216;BME280;17028;47.642;8.070;2022-09-03T03:57:04;93480.16;;;16.52;77.87
30216;BME280;17028;47.642;8.070;2022-09-03T04:02:05;93488.59;;;16.52;77.84
30216;BME280;17028;47.642;8.070;2022-09-03T04:07:06;93487.31;;;16.53;77.97
30216;BME280;17028;47.642;8.070;2022-09-03T04:12:07;93482.75;;;16.56;77.96
30216;BME280;17028;47.642;8.070;2022-09-03T04:17:09;93496.84;;;16.62;77.70
30216;BME280;17028;47.642;8.070;2022-09-03T04:22:10;93480.75;;;16.62;77.72
30216;BME280;17028;47.642;8.070;2022-09-03T04:27:11;93490.97;;;16.65;77.64
30216;BME280;17028;47.642;8.070;2022-09-03T04:32:12;93481.00;;;16.64;77.36
30216;BME280;17028;47.642;8.070;2022-09-03T04:37:32;93485.03;;;16.58;77.75
30216;BME280;17028;47.642;8.070;2022-09-03T04:42:33;93482.44;;;16.48;78.13
30216;BME280;17028;47.642;8.070;2022-09-03T04:47:34;93476.28;;;16.44;77.95
30216;BME280;17028;47.642;8.070;2022-09-03T04:52:37;93480.91;;;16.47;78.11
30216;BME280;17028;47.642;8.070;2022-09-03T04:57:38;93476.78;;;16.43;78.35
30216;BME280;17028;47.642;8.070;2022-09-03T05:02:39;93475.50;;;16.44;78.54
30216;BME280;17028;47.642;8.070;2022-09-03T05:07:40;93476.84;;;16.54;78.17
30216;BME280;17028;47.642;8.070;2022-09-03T05:12:41;93478.69;;;16.63;77.90
30216;BME280;17028;47.642;8.070;2022-09-03T05:17:42;93478.22;;;16.70;77.69
30216;BME280;17028;47.642;8.070;2022-09-03T05:22:43;93483.38;;;16.77;77.60
30216;BME280;17028;47.642;8.070;2022-09-03T05:27:44;93480.56;;;16.83;77.40
30216;BME280;17028;47.642;8.070;2022-09-03T05:32:46;93478.09;;;16.91;77.17
30216;BME280;17028;47.642;8.070;2022-09-03T05:37:47;93476.06;;;16.97;77.15
30216;BME280;17028;47.642;8.070;2022-09-03T05:42:53;93473.78;;;17.01;76.97
30216;BME280;17028;47.642;8.070;2022-09-03T05:47:55;93468.38;;;17.03;76.76
30216;BME280;17028;47.642;8.070;2022-09-03T05:52:57;93475.84;;;17.06;76.51
30216;BME280;17028;47.642;8.070;2022-09-03T05:57:58;93470.97;;;17.01;76.83
30216;BME280;17028;47.642;8.070;2022-09-03T06:02:59;93470.69;;;16.99;76.93
30216;BME280;17028;47.642;8.070;2022-09-03T06:08:01;93470.66;;;16.93;76.81
30216;BME280;17028;47.642;8.070;2022-09-03T06:13:02;93462.22;;;16.93;76.94
30216;BME280;17028;47.642;8.070;2022-09-03T06:18:04;93452.19;;;16.86;77.27
30216;BME280;17028;47.642;8.070;2022-09-03T06:23:05;93455.22;;;16.83;77.51
30216;BME280;17028;47.642;8.070;2022-09-03T06:28:06;93451.88;;;16.79;77.61
30216;BME280;17028;47.642;8.070;2022-09-03T06:33:08;93462.13;;;16.76;77.93
30216;BME280;17028;47.642;8.070;2022-09-03T06:38:09;93446.97;;;16.68;78.12
30216;BME280;17028;47.642;8.070;2022-09-03T06:43:13;93450.84;;;16.70;78.37
30216;BME280;17028;47.642;8.070;2022-09-03T06:48:14;93460.63;;;16.81;78.31
30216;BME280;17028;47.642;8.070;2022-09-03T06:53:15;93445.06;;;16.91;78.70
30216;BME280;17028;47.642;8.070;2022-09-03T06:58:16;93442.28;;;17.02;78.62
30216;BME280;17028;47.642;8.070;2022-09-03T07:03:18;93437.97;;;17.13;78.67
30216;BME280;17028;47.642;8.070;2022-09-03T07:08:19;93433.38;;;17.27;78.46
30216;BME280;17028;47.642;8.070;2022-09-03T07:13:20;93441.09;;;17.38;78.65
30216;BME280;17028;47.642;8.070;2022-09-03T07:18:21;93440.06;;;17.29;80.37
30216;BME280;17028;47.642;8.070;2022-09-03T07:23:22;93442.13;;;17.34;81.35
30216;BME280;17028;47.642;8.070;2022-09-03T07:28:24;93437.53;;;17.43;81.91
30216;BME280;17028;47.642;8.070;2022-09-03T07:33:27;93445.50;;;17.56;81.05
30216;BME280;17028;47.642;8.070;2022-09-03T07:38:29;93449.56;;;17.49;81.51
30216;BME280;17028;47.642;8.070;2022-09-03T07:43:36;93468.50;;;17.43;82.88
30216;BME280;17028;47.642;8.070;2022-09-03T07:48:40;93471.31;;;17.26;85.00
30216;BME280;17028;47.642;8.070;2022-09-03T07:53:41;93477.19;;;17.22;85.07
30216;BME280;17028;47.642;8.070;2022-09-03T07:58:42;93477.44;;;17.24;84.36
30216;BME280;17028;47.642;8.070;2022-09-03T08:03:45;93482.06;;;17.27;83.85
30216;BME280;17028;47.642;8.070;2022-09-03T08:08:46;93474.16;;;17.37;83.40
30216;BME280;17028;47.642;8.070;2022-09-03T08:18:55;93488.03;;;17.75;81.01
30216;BME280;17028;47.642;8.070;2022-09-03T08:23:56;93488.06;;;17.92;79.88
30216;BME280;17028;47.642;8.070;2022-09-03T08:29:03;93493.25;;;18.05;79.26
30216;BME280;17028;47.642;8.070;2022-09-03T08:34:06;93487.84;;;18.18;78.01
30216;BME280;17028;47.642;8.070;2022-09-03T08:39:08;93493.22;;;18.33;77.60
30216;BME280;17028;47.642;8.070;2022-09-03T08:44:18;93499.63;;;18.39;77.71
30216;BME280;17028;47.642;8.070;2022-09-03T08:49:59;93506.06;;;18.34;78.68
30216;BME280;17028;47.642;8.070;2022-09-03T08:55:23;93510.16;;;18.44;78.95
30216;BME280;17028;47.642;8.070;2022-09-03T09:00:33;93517.31;;;18.57;77.94
30216;BME280;17028;47.642;8.070;2022-09-03T09:11:27;93564.28;;;18.09;80.29
30216;BME280;17028;47.642;8.070;2022-09-03T09:16:43;93593.84;;;17.53;83.56
30216;BME280;17028;47.642;8.070;2022-09-03T09:22:02;93594.56;;;17.36;84.57
30216;BME280;17028;47.642;8.070;2022-09-03T09:27:07;93599.66;;;17.32;83.31
30216;BME280;17028;47.642;8.070;2022-09-03T09:32:09;93603.16;;;17.16;82.51
30216;BME280;17028;47.642;8.070;2022-09-03T09:37:14;93626.88;;;16.98;82.90
30216;BME280;17028;47.642;8.070;2022-09-03T09:42:15;93627.09;;;16.94;81.40
30216;BME280;17028;47.642;8.070;2022-09-03T09:47:28;93611.41;;;16.88;79.83
30216;BME280;17028;47.642;8.070;2022-09-03T09:52:30;93592.84;;;16.69;77.86
30216;BME280;17028;47.642;8.070;2022-09-03T09:57:31;93608.44;;;16.65;77.42
30216;BME280;17028;47.642;8.070;2022-09-03T10:02:35;93607.56;;;16.53;77.28
30216;BME280;17028;47.642;8.070;2022-09-03T10:07:40;93616.06;;;16.59;77.45
30216;BME280;17028;47.642;8.070;2022-09-03T10:12:44;93619.63;;;16.59;78.39
30216;BME280;17028;47.642;8.070;2022-09-03T10:17:56;93605.56;;;16.59;77.61
30216;BME280;17028;47.642;8.070;2022-09-03T10:23:21;93614.47;;;16.52;76.67
30216;BME280;17028;47.642;8.070;2022-09-03T10:28:28;93616.47;;;16.46;77.78
30216;BME280;17028;47.642;8.070;2022-09-03T10:50:27;93621.78;;;16.38;81.04
30216;BME280;17028;47.642;8.070;2022-09-03T11:00:53;93602.09;;;16.38;80.77
30216;BME280;17028;47.642;8.070;2022-09-03T11:06:08;93585.22;;;16.38;80.75
30216;BME280;17028;47.642;8.070;2022-09-03T11:11:21;93589.91;;;16.52;80.53
30216;BME280;17028;47.642;8.070;2022-09-03T11:16:51;93607.09;;;16.60;81.54
30216;BME280;17028;47.642;8.070;2022-09-03T11:21:54;93602.38;;;16.78;82.49
30216;BME280;17028;47.642;8.070;2022-09-03T11:27:03;93586.44;;;17.07;84.32
30216;BME280;17028;47.642;8.070;2022-09-03T11:32:16;93586.03;;;17.25;84.68
30216;BME280;17028;47.642;8.070;2022-09-03T11:37:26;93572.81;;;17.48;80.11
30216;BME280;17028;47.642;8.070;2022-09-03T11:47:41;93583.72;;;17.90;78.15
30216;BME280;17028;47.642;8.070;2022-09-03T11:52:42;93582.22;;;18.17;77.60
30216;BME280;17028;47.642;8.070;2022-09-03T11:57:43;93589.44;;;18.58;77.33
30216;BME280;17028;47.642;8.070;2022-09-03T12:03:00;93577.91;;;18.90;72.78
30216;BME280;17028;47.642;8.070;2022-09-03T12:08:21;93589.91;;;19.18;71.96
30216;BME280;17028;47.642;8.070;2022-09-03T12:18:49;93588.75;;;19.56;69.34
30216;BME280;17028;47.642;8.070;2022-09-03T12:23:52;93586.09;;;19.69;69.68
30216;BME280;17028;47.642;8.070;2022-09-03T12:28:56;93579.41;;;19.78;68.94
30216;BME280;17028;47.642;8.070;2022-09-03T12:34:01;93576.25;;;19.98;67.83
30216;BME280;17028;47.642;8.070;2022-09-03T12:39:19;93586.34;;;19.77;65.27
30216;BME280;17028;47.642;8.070;2022-09-03T12:44:26;93580.19;;;19.73;66.39
30216;BME280;17028;47.642;8.070;2022-09-03T12:49:40;93586.38;;;19.71;68.34
30216;BME280;17028;47.642;8.070;2022-09-03T12:54:49;93586.59;;;19.84;71.08
30216;BME280;17028;47.642;8.070;2022-09-03T12:59:56;93588.59;;;19.95;69.24
30216;BME280;17028;47.642;8.070;2022-09-03T13:04:58;93580.75;;;20.13;69.28
30216;BME280;17028;47.642;8.070;2022-09-03T13:10:05;93586.63;;;20.21;69.93
30216;BME280;17028;47.642;8.070;2022-09-03T13:15:11;93584.50;;;20.32;69.69
30216;BME280;17028;47.642;8.070;2022-09-03T13:21:13;93582.56;;;20.16;66.48
30216;BME280;17028;47.642;8.070;2022-09-03T13:26:26;93571.88;;;20.33;65.83
30216;BME280;17028;47.642;8.070;2022-09-03T13:31:34;93571.75;;;20.50;66.35
30216;BME280;17028;47.642;8.070;2022-09-03T13:36:45;93570.81;;;20.42;65.57
30216;BME280;17028;47.642;8.070;2022-09-03T13:41:53;93562.94;;;20.60;66.39
30216;BME280;17028;47.642;8.070;2022-09-03T13:47:22;93554.34;;;20.71;65.08
30216;BME280;17028;47.642;8.070;2022-09-03T13:52:49;93561.03;;;20.74;63.77
30216;BME280;17028;47.642;8.070;2022-09-03T13:58:08;93555.91;;;20.72;64.76
30216;BME280;17028;47.642;8.070;2022-09-03T14:03:31;93554.44;;;20.60;64.42
30216;BME280;17028;47.642;8.070;2022-09-03T14:19:47;93545.41;;;20.92;63.31
30216;BME280;17028;47.642;8.070;2022-09-03T14:24:54;93540.56;;;20.87;61.98
30216;BME280;17028;47.642;8.070;2022-09-03T14:30:04;93538.50;;;20.87;63.71
30216;BME280;17028;47.642;8.070;2022-09-03T14:35:22;93530.72;;;20.93;62.41
30216;BME280;17028;47.642;8.070;2022-09-03T14:41:05;93536.44;;;20.88;61.47
30216;BME280;17028;47.642;8.070;2022-09-03T14:57:08;93530.94;;;20.95;62.50
30216;BME280;17028;47.642;8.070;2022-09-03T15:07:41;93529.97;;;21.36;60.98
30216;BME280;17028;47.642;8.070;2022-09-03T15:12:48;93529.84;;;21.48;59.67
30216;BME280;17028;47.642;8.070;2022-09-03T15:39:33;93544.78;;;21.73;57.09
30216;BME280;17028;47.642;8.070;2022-09-03T15:44:44;93551.97;;;21.74;57.58
30216;BME280;17028;47.642;8.070;2022-09-03T15:49:54;93546.84;;;21.73;57.45
30216;BME280;17028;47.642;8.070;2022-09-03T15:55:22;93546.84;;;21.73;57.55
30216;BME280;17028;47.642;8.070;2022-09-03T16:00:23;93553.75;;;21.77;58.07
30216;BME280;17028;47.642;8.070;2022-09-03T16:05:43;93563.72;;;21.84;58.45
30216;BME280;17028;47.642;8.070;2022-09-03T16:16:16;93576.91;;;21.81;58.39
30216;BME280;17028;47.642;8.070;2022-09-03T16:21:25;93580.28;;;21.80;58.71
30216;BME280;17028;47.642;8.070;2022-09-03T16:26:33;93568.47;;;21.76;59.68
30216;BME280;17028;47.642;8.070;2022-09-03T16:37:34;93583.47;;;21.46;61.32
30216;BME280;17028;47.642;8.070;2022-09-03T17:10:02;93585.13;;;20.56;66.13
30216;BME280;17028;47.642;8.070;2022-09-03T17:30:40;93565.31;;;20.86;65.82
30216;BME280;17028;47.642;8.070;2022-09-03T17:51:25;93583.03;;;21.17;64.78
30216;BME280;17028;47.642;8.070;2022-09-03T17:56:41;93590.47;;;21.20;64.57
30216;BME280;17028;47.642;8.070;2022-09-03T18:01:53;93602.06;;;21.22;64.39
30216;BME280;17028;47.642;8.070;2022-09-03T18:07:09;93599.25;;;21.16;64.58
30216;BME280;17028;47.642;8.070;2022-09-03T18:17:40;93604.66;;;20.90;65.03
30216;BME280;17028;47.642;8.070;2022-09-03T18:22:56;93613.50;;;20.80;65.13
30216;BME280;17028;47.642;8.070;2022-09-03T18:28:25;93616.25;;;20.56;65.40
30216;BME280;17028;47.642;8.070;2022-09-03T18:33:47;93617.97;;;20.28;65.80
30216;BME280;17028;47.642;8.070;2022-09-03T18:39:13;93623.34;;;19.90;66.73
30216;BME280;17028;47.642;8.070;2022-09-03T18:44:49;93635.00;;;19.58;67.77
30216;BME280;17028;47.642;8.070;2022-09-03T18:50:20;93626.13;;;19.26;68.71
30216;BME280;17028;47.642;8.070;2022-09-03T18:55:45;93638.25;;;18.92;69.99
30216;BME280;17028;47.642;8.070;2022-09-03T19:01:31;93636.69;;;18.68;70.83
30216;BME280;17028;47.642;8.070;2022-09-03T19:07:05;93647.19;;;18.51;71.51
30216;BME280;17028;47.642;8.070;2022-09-03T19:23:39;93665.31;;;18.05;72.82
30216;BME280;17028;47.642;8.070;2022-09-03T19:29:08;93668.31;;;17.90;73.51
30216;BME280;17028;47.642;8.070;2022-09-03T19:51:19;93702.50;;;17.54;74.49
30216;BME280;17028;47.642;8.070;2022-09-03T19:56:40;93712.25;;;17.59;74.21
30216;BME280;17028;47.642;8.070;2022-09-03T20:02:03;93717.94;;;17.64;73.88
30216;BME280;17028;47.642;8.070;2022-09-03T20:07:23;93719.22;;;17.63;73.73
30216;BME280;17028;47.642;8.070;2022-09-03T20:12:48;93706.06;;;17.49;74.28
30216;BME280;17028;47.642;8.070;2022-09-03T20:23:19;93721.06;;;17.29;75.71
30216;BME280;17028;47.642;8.070;2022-09-03T20:28:56;93714.81;;;17.19;75.95
30216;BME280;17028;47.642;8.070;2022-09-03T20:34:11;93715.56;;;17.14;76.49
30216;BME280;17028;47.642;8.070;2022-09-03T20:39:55;93717.09;;;17.15;76.21
30216;BME280;17028;47.642;8.070;2022-09-03T20:45:16;93721.66;;;17.07;76.87
30216;BME280;17028;47.642;8.070;2022-09-03T20:50:41;93722.63;;;16.98;77.47
30216;BME280;17028;47.642;8.070;2022-09-03T20:55:48;93724.88;;;16.94;77.71
30216;BME280;17028;47.642;8.070;2022-09-03T21:22:28;93735.53;;;16.84;77.79
30216;BME280;17028;47.642;8.070;2022-09-03T21:27:46;93741.78;;;16.94;77.49
30216;BME280;17028;47.642;8.070;2022-09-03T21:32:52;93748.78;;;17.04;76.94
30216;BME280;17028;47.642;8.070;2022-09-03T21:38:05;93745.22;;;17.09;76.00
30216;BME280;17028;47.642;8.070;2022-09-03T21:43:13;93743.66;;;17.02;75.84
30216;BME280;17028;47.642;8.070;2022-09-03T21:48:20;93747.19;;;16.97;75.84
30216;BME280;17028;47.642;8.070;2022-09-03T21:53:34;93757.69;;;16.97;75.80
30216;BME280;17028;47.642;8.070;2022-09-03T22:04:01;93765.72;;;16.83;75.36
30216;BME280;17028;47.642;8.070;2022-09-03T22:09:11;93755.91;;;16.73;76.00
30216;BME280;17028;47.642;8.070;2022-09-03T22:14:16;93763.81;;;16.69;76.27
30216;BME280;17028;47.642;8.070;2022-09-03T22:19:20;93765.81;;;16.68;76.36
30216;BME280;17028;47.642;8.070;2022-09-03T22:30:10;93766.09;;;16.44;77.50
30216;BME280;17028;47.642;8.070;2022-09-03T22:50:54;93776.28;;;16.15;79.24
30216;BME280;17028;47.642;8.070;2022-09-03T22:56:08;93771.34;;;16.10;79.06
30216;BME280;17028;47.642;8.070;2022-09-03T23:01:16;93772.06;;;16.05;79.31
30216;BME280;17028;47.642;8.070;2022-09-03T23:06:33;93777.63;;;15.99;79.60
30216;BME280;17028;47.642;8.070;2022-09-03T23:11:49;93771.16;;;15.93;79.92
30216;BME280;17028;47.642;8.070;2022-09-03T23:16:56;93765.91;;;15.86;80.53
30216;BME280;17028;47.642;8.070;2022-09-03T23:22:21;93762.91;;;15.90;80.21
30216;BME280;17028;47.642;8.070;2022-09-03T23:27:28;93772.59;;;15.89;80.25
30216;BME280;17028;47.642;8.070;2022-09-03T23:32:30;93781.53;;;15.87;80.27
30216;BME280;17028;47.642;8.070;2022-09-03T23:37:48;93788.22;;;15.90;80.10
30216;BME280;17028;47.642;8.070;2022-09-03T23:53:49;93792.38;;;15.79;80.58
30216;BME280;17028;47.642;8.070;2022-09-03T23:59:08;93810.84;;;15.80;80.81
